Time;durP1;ratioP1;P1;durP2;ratioP2;P2;SDS_P1;SDS_P2;PMS_P1;PMS_P2;Temp;Humidity;BMP_temperature;BMP_pressure;BME280_temperature;BME280_humidity;BME280_pressure;Samples;Min_cycle;Max_cycle;Signal;HPM_P1;HPM_P2
2020/12/24 00:00:09;;;;;;;2.17;1.10;;;4.20;99.90;;;;;;5057988;28;20215;-87
2020/12/24 00:02:40;;;;;;;2.13;1.10;;;4.10;99.90;;;;;;5052070;28;20239;-87
2020/12/24 00:05:30;;;;;;;1.57;1.00;;;4.00;99.90;;;;;;5054371;28;20544;-88
2020/12/24 00:08:27;;;;;;;2.07;1.00;;;3.90;99.90;;;;;;5055386;28;20200;-86
2020/12/24 00:11:07;;;;;;;2.37;1.00;;;3.80;99.90;;;;;;5053299;28;20216;-90
2020/12/24 00:13:39;;;;;;;2.00;0.90;;;3.60;99.90;;;;;;5066699;28;20306;-87
2020/12/24 00:16:17;;;;;;;2.73;1.13;;;3.60;99.90;;;;;;5050944;28;20255;-87
2020/12/24 00:19:03;;;;;;;2.43;1.07;;;3.50;99.90;;;;;;5066017;28;20200;-85
2020/12/24 00:21:39;;;;;;;2.03;1.20;;;3.40;99.90;;;;;;5058484;28;20232;-87
2020/12/24 00:24:25;;;;;;;1.40;0.90;;;3.30;99.90;;;;;;5065501;28;20200;-88
2020/12/24 00:27:03;;;;;;;1.77;1.20;;;3.20;99.90;;;;;;5045848;28;20239;-88
2020/12/24 00:29:36;;;;;;;3.67;1.00;;;3.20;99.90;;;;;;5055336;28;20208;-87
2020/12/24 00:32:10;;;;;;;2.10;1.20;;;3.10;99.90;;;;;;5050650;28;20220;-87
2020/12/24 00:34:51;;;;;;;3.03;1.30;;;3.00;99.90;;;;;;5052927;28;20224;-87
2020/12/24 00:37:23;;;;;;;2.40;1.20;;;2.90;99.90;;;;;;5036536;28;20216;-85
2020/12/24 00:40:01;;;;;;;2.83;1.10;;;2.90;99.90;;;;;;5049210;28;20303;-87
2020/12/24 00:46:04;;;;;;;2.63;1.27;;;2.80;99.90;;;;;;5050772;28;20671;-88
2020/12/24 00:48:41;;;;;;;2.57;1.37;;;2.50;99.90;;;;;;5055330;28;20275;-87
2020/12/24 00:51:23;;;;;;;2.13;1.20;;;2.60;99.90;;;;;;5056078;28;20258;-86
2020/12/24 00:54:07;;;;;;;2.83;1.23;;;2.50;99.90;;;;;;5067572;28;20209;-87
2020/12/24 00:56:42;;;;;;;1.20;1.10;;;2.50;99.90;;;;;;5045352;28;20204;-88
2020/12/24 00:59:19;;;;;;;3.27;1.30;;;2.50;99.90;;;;;;5055739;28;20235;-86
2020/12/24 01:01:55;;;;;;;2.17;1.40;;;2.40;99.90;;;;;;5051242;28;20239;-88
2020/12/24 01:04:31;;;;;;;3.00;1.60;;;2.30;99.90;;;;;;5047299;28;20214;-91
2020/12/24 01:07:05;;;;;;;3.20;1.73;;;2.20;99.90;;;;;;5051463;28;20203;-88
2020/12/24 01:09:37;;;;;;;3.13;1.90;;;2.20;99.90;;;;;;5059182;28;20238;-92
2020/12/24 01:12:24;;;;;;;4.13;2.00;;;2.20;99.90;;;;;;5053088;28;20202;-88
2020/12/24 01:15:08;;;;;;;3.97;2.00;;;2.10;99.90;;;;;;5059603;28;20257;-88
2020/12/24 01:17:45;;;;;;;3.43;2.03;;;2.10;99.90;;;;;;5054439;28;20211;-88
2020/12/24 01:20:20;;;;;;;3.53;2.00;;;2.10;99.90;;;;;;5057364;28;20242;-91
2020/12/24 01:22:52;;;;;;;5.33;1.97;;;2.00;99.90;;;;;;5059298;28;20239;-89
2020/12/24 01:25:29;;;;;;;4.10;1.87;;;1.90;99.90;;;;;;5061925;28;20870;-91
2020/12/24 01:27:59;;;;;;;4.90;2.00;;;2.00;99.90;;;;;;5058834;28;20231;-87
2020/12/24 01:30:43;;;;;;;3.37;1.97;;;2.00;99.90;;;;;;5054560;28;20219;-87
2020/12/24 01:33:22;;;;;;;3.37;1.60;;;2.10;99.90;;;;;;5053017;28;20244;-88
2020/12/24 01:35:55;;;;;;;3.30;1.80;;;2.00;99.90;;;;;;5051337;28;20224;-87
2020/12/24 01:38:26;;;;;;;3.83;2.10;;;2.10;99.90;;;;;;5056934;28;20215;-90
2020/12/24 01:41:04;;;;;;;3.37;2.20;;;2.10;99.90;;;;;;5052381;28;20205;-86
2020/12/24 01:43:38;;;;;;;3.30;1.80;;;2.10;99.90;;;;;;5050130;28;20275;-87
2020/12/24 01:46:15;;;;;;;3.30;2.07;;;2.10;99.90;;;;;;5055552;28;20219;-87
2020/12/24 01:48:50;;;;;;;2.80;2.10;;;2.00;99.90;;;;;;5051377;28;20230;-89
2020/12/24 01:51:27;;;;;;;4.40;2.20;;;2.00;99.90;;;;;;5053415;28;20205;-88
2020/12/24 01:59:33;;;;;;;3.30;2.07;;;1.90;99.90;;;;;;5800295;22;20335;-96
2020/12/24 02:18:30;;;;;;;4.23;2.57;;;1.60;99.90;;;;;;5664832;22;20263;-96
2020/12/24 05:31:56;;;;;;;8.47;5.50;;;-0.10;99.90;;;;;;4936713;29;20254;-95
2020/12/24 05:34:58;;;;;;;9.57;5.90;;;-0.10;99.90;;;;;;4943421;29;20216;-96
2020/12/24 05:46:08;;;;;;;7.43;5.67;;;0.00;99.90;;;;;;4938118;29;20221;-94
2020/12/24 05:49:04;;;;;;;6.63;3.83;;;0.00;99.90;;;;;;4946326;29;20232;-94
2020/12/24 05:52:10;;;;;;;4.97;3.93;;;-0.10;99.90;;;;;;4936041;29;20221;-94
2020/12/24 05:55:07;;;;;;;5.27;3.83;;;-0.10;99.90;;;;;;4941499;29;20225;-96
2020/12/24 08:13:15;;;;;;;24.93;8.50;;;0.00;99.90;;;;;;4958857;28;20204;-95
2020/12/24 08:15:53;;;;;;;12.27;7.67;;;0.00;99.90;;;;;;4959314;28;20218;-96
2020/12/24 08:18:29;;;;;;;10.60;7.53;;;-0.10;99.90;;;;;;4959105;28;20466;-96
2020/12/24 08:21:13;;;;;;;59.93;11.17;;;-0.10;99.90;;;;;;4973262;28;20227;-96
2020/12/24 08:23:50;;;;;;;10.47;7.40;;;-0.20;99.90;;;;;;4959369;29;20212;-96
2020/12/24 08:26:24;;;;;;;11.30;7.40;;;-0.30;99.90;;;;;;4958743;29;20200;-96
2020/12/24 08:28:57;;;;;;;11.17;7.67;;;-0.40;99.90;;;;;;4955758;28;20208;-96
2020/12/24 08:31:31;;;;;;;10.20;7.63;;;-0.40;99.90;;;;;;4955447;29;20215;-96
2020/12/24 08:34:03;;;;;;;15.30;8.90;;;-0.40;99.90;;;;;;4954164;29;20408;-96
2020/12/24 08:36:41;;;;;;;12.83;8.60;;;-0.40;99.90;;;;;;4946938;29;20650;-96
2020/12/24 08:39:13;;;;;;;13.70;8.53;;;-0.40;99.90;;;;;;4938762;29;20209;-96
2020/12/24 08:41:49;;;;;;;13.50;8.30;;;-0.40;99.90;;;;;;4946851;29;20260;-96
2020/12/24 08:44:26;;;;;;;12.80;7.87;;;-0.50;99.90;;;;;;4958561;28;20192;-96
2020/12/24 08:47:06;;;;;;;13.73;8.07;;;-0.50;99.90;;;;;;4958730;28;20209;-96
2020/12/24 08:49:45;;;;;;;13.20;7.93;;;-0.60;99.90;;;;;;4939275;29;20200;-96
2020/12/24 08:52:18;;;;;;;14.23;8.87;;;-0.60;99.90;;;;;;4954164;29;20197;-96
2020/12/24 08:55:01;;;;;;;11.73;7.90;;;-0.70;99.90;;;;;;4960196;28;20212;-96
2020/12/24 08:57:33;;;;;;;11.27;8.13;;;-0.70;99.90;;;;;;4959033;28;20252;-96
2020/12/24 09:00:09;;;;;;;9.33;6.87;;;-0.70;99.90;;;;;;4940571;28;20203;-96
2020/12/24 09:05:22;;;;;;;6.90;5.27;;;-0.70;99.90;;;;;;5302845;23;20232;-96
2020/12/24 09:07:55;;;;;;;9.77;5.40;;;-0.60;99.90;;;;;;4938680;29;20194;-96
2020/12/24 09:10:28;;;;;;;5.93;4.30;;;-0.50;99.90;;;;;;4937660;29;20213;-96
2020/12/24 09:13:08;;;;;;;7.10;5.00;;;-0.50;99.90;;;;;;4940102;29;20630;-96
2020/12/24 09:15:44;;;;;;;10.77;4.50;;;-0.50;99.90;;;;;;4933101;29;20272;-96
2020/12/24 09:18:17;;;;;;;7.80;4.33;;;-0.50;99.90;;;;;;4935759;29;20201;-96
2020/12/24 09:20:48;;;;;;;7.37;4.50;;;-0.40;99.90;;;;;;4921772;29;20217;-96
2020/12/24 09:23:20;;;;;;;7.23;4.60;;;-0.40;99.90;;;;;;4996164;23;20331;-96
2020/12/24 09:25:51;;;;;;;5.87;4.00;;;-0.40;99.90;;;;;;4953275;29;20623;-96
2020/12/24 09:28:25;;;;;;;7.30;4.00;;;-0.40;99.90;;;;;;4955010;29;20216;-96
2020/12/24 09:31:00;;;;;;;5.27;3.80;;;-0.40;99.90;;;;;;4957188;29;20238;-96
2020/12/24 09:33:31;;;;;;;4.40;3.90;;;-0.40;99.90;;;;;;4956046;29;20263;-96
2020/12/24 09:36:18;;;;;;;5.40;3.23;;;-0.40;99.90;;;;;;4957801;29;20204;-96
2020/12/24 09:38:51;;;;;;;5.30;3.30;;;-0.40;99.90;;;;;;4956638;29;20200;-96
2020/12/24 09:41:23;;;;;;;4.37;3.30;;;-0.40;99.90;;;;;;4957239;29;20200;-96
2020/12/24 09:43:58;;;;;;;10.70;3.87;;;-0.40;99.90;;;;;;4956186;29;20196;-96
2020/12/24 09:46:31;;;;;;;7.37;3.37;;;-0.40;99.90;;;;;;4958035;29;20240;-96
2020/12/24 09:49:07;;;;;;;4.70;2.70;;;-0.40;99.90;;;;;;4958223;28;20195;-96
2020/12/24 09:51:39;;;;;;;5.03;2.77;;;-0.30;99.90;;;;;;4958671;28;20271;-96
2020/12/24 09:54:32;;;;;;;6.33;2.60;;;-0.40;99.90;;;;;;4936840;29;20192;-96
2020/12/24 09:57:03;;;;;;;3.90;2.67;;;-0.40;99.90;;;;;;4970173;28;20203;-96
2020/12/24 10:02:14;;;;;;;5.47;2.80;;;-0.40;99.90;;;;;;5299977;23;20587;-96
2020/12/24 10:04:44;;;;;;;4.33;2.80;;;-0.40;99.90;;;;;;4954195;29;20209;-96
2020/12/24 10:07:16;;;;;;;4.93;2.80;;;-0.40;99.90;;;;;;4954504;28;20196;-96
2020/12/24 10:09:47;;;;;;;4.73;2.80;;;-0.40;99.90;;;;;;4961348;28;20198;-96
2020/12/24 10:12:21;;;;;;;4.30;3.03;;;-0.40;99.90;;;;;;4952925;28;20232;-96
2020/12/24 10:20:20;;;;;;;3.33;2.67;;;-0.40;99.90;;;;;;4950812;29;20262;-96
2020/12/24 10:22:52;;;;;;;4.13;2.20;;;-0.40;99.90;;;;;;4955146;28;20255;-96
2020/12/24 10:52:29;;;;;;;3.23;2.10;;;-0.40;99.90;;;;;;5305850;23;20311;-96
2020/12/24 10:55:15;;;;;;;3.77;2.53;;;-0.40;99.90;;;;;;4953059;29;20216;-96
2020/12/24 10:57:50;;;;;;;3.77;2.40;;;-0.30;99.90;;;;;;4954475;28;20219;-96
2020/12/24 11:00:22;;;;;;;3.63;2.40;;;-0.20;99.90;;;;;;4973091;28;20216;-96
2020/12/24 11:03:01;;;;;;;4.10;2.70;;;-0.20;99.90;;;;;;4957541;29;20231;-96
2020/12/24 11:05:37;;;;;;;4.00;2.40;;;-0.10;99.90;;;;;;4959305;29;20207;-96
2020/12/24 11:08:15;;;;;;;3.63;2.20;;;0.00;99.90;;;;;;4955668;29;20208;-96
2020/12/24 11:24:16;;;;;;;4.37;2.60;;;-0.20;99.90;;;;;;5522312;23;20257;-96
2020/12/24 11:27:02;;;;;;;6.07;2.70;;;-0.30;99.90;;;;;;4971687;28;20208;-96
2020/12/24 11:29:34;;;;;;;4.30;2.93;;;-0.20;99.90;;;;;;4975973;28;20215;-96
2020/12/24 11:32:07;;;;;;;5.93;2.80;;;-0.20;99.90;;;;;;4962771;29;20215;-96
2020/12/24 11:34:52;;;;;;;3.53;2.50;;;-0.30;99.90;;;;;;4977203;28;20211;-96
2020/12/24 11:37:24;;;;;;;4.87;2.80;;;-0.40;99.90;;;;;;4979353;28;20203;-96
2020/12/24 11:40:07;;;;;;;4.13;3.10;;;-0.40;99.90;;;;;;4970590;29;20230;-96
2020/12/24 11:42:41;;;;;;;5.87;3.20;;;-0.40;99.90;;;;;;4977833;28;20385;-96
2020/12/24 11:45:17;;;;;;;5.47;3.20;;;-0.50;99.90;;;;;;4978629;28;20201;-96
2020/12/24 11:47:50;;;;;;;6.63;4.17;;;-0.40;99.90;;;;;;4978815;28;20258;-96
2020/12/24 11:50:35;;;;;;;6.40;4.10;;;-0.30;99.90;;;;;;4978518;28;20190;-96
2020/12/24 13:19:18;;;;;;;8.27;5.17;;;-0.70;99.90;;;;;;4973509;28;20228;-96
2020/12/24 13:21:52;;;;;;;7.20;5.07;;;-0.80;99.90;;;;;;4975649;28;20238;-96
2020/12/24 17:39:22;;;;;;;620.00;36.33;;;0.50;99.90;;;;;;4933945;29;20225;-96
2020/12/24 18:17:20;;;;;;;28.40;12.07;;;1.40;99.90;;;;;;5918027;23;20204;-96
2020/12/24 18:19:51;;;;;;;23.50;11.20;;;1.30;99.90;;;;;;5166713;23;20912;-90
2020/12/24 18:28:23;;;;;;;17.67;8.57;;;1.30;99.90;;;;;;4974461;28;20223;-96
2020/12/24 18:34:39;;;;;;;9.80;7.10;;;1.10;99.90;;;;;;5671414;23;20251;-96
2020/12/24 18:42:27;;;;;;;9.30;7.20;;;1.00;99.90;;;;;;5783968;23;20261;-93
2020/12/24 18:45:00;;;;;;;8.33;6.80;;;1.10;99.90;;;;;;4957613;29;20200;-95
2020/12/24 18:53:03;;;;;;;10.10;7.67;;;1.10;99.90;;;;;;5942590;23;20199;-93
2020/12/24 18:55:35;;;;;;;8.90;6.93;;;1.20;99.90;;;;;;4938460;29;20216;-96
2020/12/24 19:01:24;;;;;;;11.13;7.40;;;1.20;99.90;;;;;;4940281;28;20210;-96
2020/12/24 19:09:23;;;;;;;12.57;8.13;;;1.60;99.90;;;;;;5746109;23;20355;-96
2020/12/24 19:12:02;;;;;;;10.63;8.00;;;1.70;99.90;;;;;;4936916;29;20211;-96
2020/12/24 19:14:49;;;;;;;12.30;8.17;;;1.80;99.90;;;;;;4954222;28;20191;-96
2020/12/24 19:17:23;;;;;;;12.30;9.17;;;2.00;99.90;;;;;;4938431;29;20197;-96
2020/12/24 19:19:57;;;;;;;8.93;7.47;;;2.00;99.90;;;;;;4946034;29;20227;-96
2020/12/24 19:22:34;;;;;;;10.10;8.10;;;2.10;99.90;;;;;;4955751;29;20241;-96
2020/12/24 19:25:08;;;;;;;12.97;9.00;;;2.20;99.90;;;;;;4945290;28;20208;-96
2020/12/24 19:27:38;;;;;;;11.67;7.67;;;2.40;99.90;;;;;;4935768;29;20211;-96
2020/12/24 19:30:28;;;;;;;10.97;7.90;;;2.50;99.90;;;;;;4937898;29;20197;-96
2020/12/24 19:35:58;;;;;;;11.40;8.63;;;2.70;99.90;;;;;;5198197;23;20278;-97
2020/12/24 19:43:49;;;;;;;11.40;7.97;;;3.10;99.90;;;;;;5546105;23;20311;-96
2020/12/24 19:46:21;;;;;;;6.93;5.80;;;3.20;99.90;;;;;;4954992;28;20287;-96
2020/12/24 19:55:35;;;;;;;6.67;4.87;;;3.50;99.90;;;;;;4972757;23;20259;-96
2020/12/24 20:30:28;;;;;;;7.27;4.73;;;4.80;99.90;;;;;;4974332;28;20239;-96
2020/12/24 20:32:59;;;;;;;8.67;5.80;;;4.90;99.90;;;;;;4968022;28;20247;-96
2020/12/24 20:35:33;;;;;;;9.47;6.23;;;5.00;99.90;;;;;;4965143;28;20215;-96
2020/12/24 20:38:08;;;;;;;7.63;5.63;;;5.10;99.90;;;;;;4976461;28;20243;-96
2020/12/24 20:40:43;;;;;;;6.63;4.77;;;5.20;99.90;;;;;;4975263;28;20272;-96
2020/12/24 20:43:16;;;;;;;7.70;5.80;;;5.40;99.90;;;;;;4975890;28;20231;-95
2020/12/24 20:45:49;;;;;;;7.07;5.13;;;5.50;99.90;;;;;;4976739;28;20227;-96
2020/12/24 20:48:20;;;;;;;7.90;5.63;;;5.50;99.90;;;;;;5016100;23;20235;-96
2020/12/24 20:56:22;;;;;;;6.50;4.47;;;5.60;99.90;;;;;;5625971;23;20575;-96
2020/12/24 20:58:53;;;;;;;7.27;5.67;;;5.60;99.90;;;;;;4977218;28;20337;-94
2020/12/24 21:01:40;;;;;;;8.43;6.17;;;5.60;99.90;;;;;;4987536;28;20271;-96
2020/12/24 21:04:11;;;;;;;7.60;5.87;;;5.70;99.90;;;;;;4994375;28;20223;-96
2020/12/24 21:06:45;;;;;;;6.30;4.73;;;5.70;99.90;;;;;;4976149;28;20234;-95
2020/12/24 21:12:16;;;;;;;5.50;4.53;;;5.80;99.90;;;;;;4976836;28;20207;-87
2020/12/24 21:14:47;;;;;;;7.67;5.27;;;6.00;99.90;;;;;;4981380;28;20192;-95
2020/12/24 21:23:12;;;;;;;6.83;4.40;;;6.00;99.90;;;;;;4973443;28;20236;-96
2020/12/24 21:41:44;;;;;;;6.87;4.83;;;5.70;99.90;;;;;;4932871;29;20284;-96
2020/12/24 21:44:15;;;;;;;6.37;4.33;;;5.70;99.90;;;;;;4935951;28;20247;-96
2020/12/24 21:46:47;;;;;;;6.37;3.73;;;5.70;99.90;;;;;;4935811;29;20189;-96
2020/12/24 21:49:20;;;;;;;5.90;3.83;;;5.80;99.90;;;;;;4936917;29;20233;-96
2020/12/24 21:51:54;;;;;;;6.70;3.90;;;5.90;99.90;;;;;;4935313;29;20205;-96
2020/12/24 21:54:28;;;;;;;4.50;3.90;;;6.10;99.90;;;;;;4936250;29;20522;-96
2020/12/24 21:57:01;;;;;;;7.90;4.13;;;6.20;99.90;;;;;;4936552;29;20201;-96
2020/12/24 21:59:31;;;;;;;7.37;4.50;;;6.20;99.90;;;;;;4935019;29;20339;-96
2020/12/24 22:02:15;;;;;;;6.97;5.50;;;6.30;99.90;;;;;;4934560;29;20273;-96
2020/12/24 22:04:47;;;;;;;13.13;6.00;;;6.40;99.90;;;;;;4934027;29;20311;-96
2020/12/24 22:07:21;;;;;;;9.73;6.93;;;6.50;99.90;;;;;;4934832;29;20256;-96
2020/12/24 22:09:51;;;;;;;8.70;5.90;;;6.60;99.90;;;;;;4933384;29;20257;-96
